sensor_id;sensor_type;location;lat;lon;timestamp;pressure;altitude;pressure_sealevel;temperature;humidity
63019;BME280;49105;46.046;10.760;2023-04-08T00:01:11;95565.25;;;6.72;47.78
63019;BME280;49105;46.046;10.760;2023-04-08T00:03:43;95564.16;;;6.68;47.42
63019;BME280;49105;46.046;10.760;2023-04-08T00:06:08;95564.16;;;6.68;47.46
63019;BME280;49105;46.046;10.760;2023-04-08T00:08:41;95563.88;;;6.65;47.38
63019;BME280;49105;46.046;10.760;2023-04-08T00:11:15;95556.72;;;6.60;47.82
63019;BME280;49105;46.046;10.760;2023-04-08T00:13:47;95565.72;;;6.64;47.51
63019;BME280;49105;46.046;10.760;2023-04-08T00:16:13;95564.56;;;6.55;47.86
63019;BME280;49105;46.046;10.760;2023-04-08T00:18:45;95567.84;;;6.40;48.02
63019;BME280;49105;46.046;10.760;2023-04-08T00:21:11;95563.88;;;6.38;47.98
63019;BME280;49105;46.046;10.760;2023-04-08T00:23:37;95570.94;;;6.37;48.18
63019;BME280;49105;46.046;10.760;2023-04-08T00:26:03;95566.78;;;6.41;48.02
63019;BME280;49105;46.046;10.760;2023-04-08T00:28:38;95571.81;;;6.43;47.78
63019;BME280;49105;46.046;10.760;2023-04-08T00:31:09;95568.88;;;6.39;48.12
63019;BME280;49105;46.046;10.760;2023-04-08T00:33:35;95570.91;;;6.32;47.93
63019;BME280;49105;46.046;10.760;2023-04-08T00:36:06;95562.19;;;6.27;47.92
63019;BME280;49105;46.046;10.760;2023-04-08T00:38:38;95566.69;;;6.31;48.25
63019;BME280;49105;46.046;10.760;2023-04-08T00:41:12;95567.31;;;6.16;48.63
63019;BME280;49105;46.046;10.760;2023-04-08T00:43:44;95573.50;;;6.05;49.13
63019;BME280;49105;46.046;10.760;2023-04-08T00:46:09;95575.88;;;6.07;48.54
63019;BME280;49105;46.046;10.760;2023-04-08T00:48:44;95576.13;;;6.05;48.74
63019;BME280;49105;46.046;10.760;2023-04-08T00:51:16;95576.41;;;6.09;48.71
63019;BME280;49105;46.046;10.760;2023-04-08T00:53:41;95571.16;;;6.09;49.12
63019;BME280;49105;46.046;10.760;2023-04-08T00:56:07;95561.47;;;6.09;48.74
63019;BME280;49105;46.046;10.760;2023-04-08T00:58:35;95567.94;;;6.02;48.84
63019;BME280;49105;46.046;10.760;2023-04-08T01:01:21;95573.03;;;5.91;48.88
63019;BME280;49105;46.046;10.760;2023-04-08T01:07:21;95575.53;;;5.81;49.01
63019;BME280;49105;46.046;10.760;2023-04-08T01:09:52;95566.09;;;5.63;49.78
63019;BME280;49105;46.046;10.760;2023-04-08T01:12:25;95573.19;;;5.63;49.52
63019;BME280;49105;46.046;10.760;2023-04-08T01:15:20;95575.91;;;5.68;49.76
63019;BME280;49105;46.046;10.760;2023-04-08T01:17:46;95562.53;;;5.69;49.75
63019;BME280;49105;46.046;10.760;2023-04-08T01:20:13;95567.00;;;5.69;49.14
63019;BME280;49105;46.046;10.760;2023-04-08T01:25:22;95571.63;;;5.62;49.49
63019;BME280;49105;46.046;10.760;2023-04-08T01:27:55;95564.47;;;5.57;49.55
63019;BME280;49105;46.046;10.760;2023-04-08T01:30:32;95566.63;;;5.60;49.70
63019;BME280;49105;46.046;10.760;2023-04-08T01:33:00;95563.69;;;5.57;49.37
63019;BME280;49105;46.046;10.760;2023-04-08T01:35:35;95564.22;;;5.59;49.46
63019;BME280;49105;46.046;10.760;2023-04-08T01:38:17;95557.94;;;5.60;49.61
63019;BME280;49105;46.046;10.760;2023-04-08T01:40:45;95563.19;;;5.60;49.38
63019;BME280;49105;46.046;10.760;2023-04-08T01:43:13;95566.94;;;5.47;49.63
63019;BME280;49105;46.046;10.760;2023-04-08T01:45:47;95560.16;;;5.51;49.58
63019;BME280;49105;46.046;10.760;2023-04-08T01:48:20;95564.81;;;5.44;49.60
63019;BME280;49105;46.046;10.760;2023-04-08T01:50:53;95564.03;;;5.43;49.59
63019;BME280;49105;46.046;10.760;2023-04-08T01:53:29;95566.41;;;5.45;49.84
63019;BME280;49105;46.046;10.760;2023-04-08T01:56:00;95564.84;;;5.27;50.08
63019;BME280;49105;46.046;10.760;2023-04-08T01:58:37;95569.28;;;5.10;50.32
63019;BME280;49105;46.046;10.760;2023-04-08T02:01:05;95568.50;;;5.09;50.73
63019;BME280;49105;46.046;10.760;2023-04-08T02:03:45;95563.09;;;5.16;50.68
63019;BME280;49105;46.046;10.760;2023-04-08T02:06:17;95565.00;;;5.20;50.53
63019;BME280;49105;46.046;10.760;2023-04-08T02:08:53;95556.66;;;5.23;50.09
63019;BME280;49105;46.046;10.760;2023-04-08T02:11:28;95555.13;;;5.28;50.20
63019;BME280;49105;46.046;10.760;2023-04-08T02:13:53;95558.63;;;5.33;50.16
63019;BME280;49105;46.046;10.760;2023-04-08T02:16:42;95555.34;;;5.26;50.21
63019;BME280;49105;46.046;10.760;2023-04-08T02:19:14;95554.25;;;5.05;50.85
63019;BME280;49105;46.046;10.760;2023-04-08T02:21:56;95558.19;;;5.03;50.59
63019;BME280;49105;46.046;10.760;2023-04-08T02:24:32;95561.19;;;4.94;51.08
63019;BME280;49105;46.046;10.760;2023-04-08T02:27:09;95557.53;;;4.95;51.20
63019;BME280;49105;46.046;10.760;2023-04-08T02:29:36;95560.09;;;5.07;51.08
63019;BME280;49105;46.046;10.760;2023-04-08T02:32:11;95562.84;;;5.17;50.88
63019;BME280;49105;46.046;10.760;2023-04-08T02:37:58;95558.31;;;5.13;50.85
63019;BME280;49105;46.046;10.760;2023-04-08T02:40:24;95557.94;;;4.87;51.52
63019;BME280;49105;46.046;10.760;2023-04-08T02:42:50;95559.91;;;4.80;51.63
63019;BME280;49105;46.046;10.760;2023-04-08T02:45:16;95561.75;;;4.80;51.58
63019;BME280;49105;46.046;10.760;2023-04-08T02:47:51;95564.22;;;4.86;51.55
63019;BME280;49105;46.046;10.760;2023-04-08T02:50:26;95560.88;;;4.91;51.42
63019;BME280;49105;46.046;10.760;2023-04-08T02:53:03;95558.91;;;4.98;51.34
63019;BME280;49105;46.046;10.760;2023-04-08T02:55:29;95556.56;;;5.02;51.19
63019;BME280;49105;46.046;10.760;2023-04-08T02:58:01;95554.13;;;4.95;51.24
63019;BME280;49105;46.046;10.760;2023-04-08T03:00:35;95556.75;;;4.78;51.57
63019;BME280;49105;46.046;10.760;2023-04-08T03:03:06;95554.50;;;4.70;51.78
63019;BME280;49105;46.046;10.760;2023-04-08T03:05:35;95558.38;;;4.51;52.26
63019;BME280;49105;46.046;10.760;2023-04-08T03:08:04;95558.22;;;4.40;52.72
63019;BME280;49105;46.046;10.760;2023-04-08T03:10:37;95547.81;;;4.45;52.54
63019;BME280;49105;46.046;10.760;2023-04-08T03:13:11;95552.75;;;4.59;52.29
63019;BME280;49105;46.046;10.760;2023-04-08T03:15:49;95548.16;;;4.66;52.14
63019;BME280;49105;46.046;10.760;2023-04-08T03:18:21;95544.75;;;4.82;51.65
63019;BME280;49105;46.046;10.760;2023-04-08T03:20:55;95544.19;;;4.80;51.83
63019;BME280;49105;46.046;10.760;2023-04-08T03:23:27;95545.13;;;4.57;52.23
63019;BME280;49105;46.046;10.760;2023-04-08T03:25:52;95548.75;;;4.56;52.48
63019;BME280;49105;46.046;10.760;2023-04-08T03:28:18;95553.41;;;4.66;52.48
63019;BME280;49105;46.046;10.760;2023-04-08T03:30:49;95550.28;;;4.69;52.27
63019;BME280;49105;46.046;10.760;2023-04-08T03:33:15;95557.53;;;4.62;52.40
63019;BME280;49105;46.046;10.760;2023-04-08T03:35:49;95555.22;;;4.65;52.48
63019;BME280;49105;46.046;10.760;2023-04-08T03:38:21;95547.97;;;4.72;52.04
63019;BME280;49105;46.046;10.760;2023-04-08T03:40:56;95549.41;;;4.80;52.19
63019;BME280;49105;46.046;10.760;2023-04-08T03:43:33;95543.13;;;4.81;52.16
63019;BME280;49105;46.046;10.760;2023-04-08T03:46:05;95553.63;;;4.81;51.96
63019;BME280;49105;46.046;10.760;2023-04-08T03:48:39;95540.91;;;4.73;52.10
63019;BME280;49105;46.046;10.760;2023-04-08T03:51:08;95549.03;;;4.71;52.51
63019;BME280;49105;46.046;10.760;2023-04-08T03:53:42;95548.31;;;4.76;52.23
63019;BME280;49105;46.046;10.760;2023-04-08T03:56:14;95547.97;;;4.89;51.93
63019;BME280;49105;46.046;10.760;2023-04-08T03:58:52;95550.72;;;4.94;51.85
63019;BME280;49105;46.046;10.760;2023-04-08T04:01:23;95552.09;;;4.68;52.27
63019;BME280;49105;46.046;10.760;2023-04-08T04:03:55;95553.69;;;4.53;52.86
63019;BME280;49105;46.046;10.760;2023-04-08T04:06:20;95560.53;;;4.54;52.71
63019;BME280;49105;46.046;10.760;2023-04-08T04:08:55;95550.44;;;4.62;52.66
63019;BME280;49105;46.046;10.760;2023-04-08T04:11:20;95555.31;;;4.70;52.29
63019;BME280;49105;46.046;10.760;2023-04-08T04:14:08;95557.22;;;4.75;52.67
63019;BME280;49105;46.046;10.760;2023-04-08T04:16:36;95550.22;;;4.81;52.24
63019;BME280;49105;46.046;10.760;2023-04-08T04:19:02;95559.75;;;4.87;52.18
63019;BME280;49105;46.046;10.760;2023-04-08T04:21:28;95561.75;;;4.80;52.40
63019;BME280;49105;46.046;10.760;2023-04-08T04:23:59;95564.50;;;4.73;52.22
63019;BME280;49105;46.046;10.760;2023-04-08T04:26:25;95569.91;;;4.66;52.58
63019;BME280;49105;46.046;10.760;2023-04-08T04:28:51;95562.25;;;4.65;52.66
63019;BME280;49105;46.046;10.760;2023-04-08T04:31:24;95572.75;;;4.65;52.74
63019;BME280;49105;46.046;10.760;2023-04-08T04:33:58;95567.22;;;4.61;52.50
63019;BME280;49105;46.046;10.760;2023-04-08T04:36:23;95572.28;;;4.68;52.64
63019;BME280;49105;46.046;10.760;2023-04-08T04:38:49;95563.72;;;4.72;52.57
63019;BME280;49105;46.046;10.760;2023-04-08T04:41:18;95570.53;;;4.57;52.87
63019;BME280;49105;46.046;10.760;2023-04-08T04:43:50;95574.81;;;4.46;53.17
63019;BME280;49105;46.046;10.760;2023-04-08T04:46:22;95577.00;;;4.37;53.41
63019;BME280;49105;46.046;10.760;2023-04-08T04:48:53;95572.56;;;4.38;53.33
63019;BME280;49105;46.046;10.760;2023-04-08T04:51:25;95580.50;;;4.43;53.36
63019;BME280;49105;46.046;10.760;2023-04-08T04:53:58;95582.34;;;4.42;53.36
63019;BME280;49105;46.046;10.760;2023-04-08T04:56:23;95580.28;;;4.44;53.36
63019;BME280;49105;46.046;10.760;2023-04-08T04:58:56;95589.09;;;4.55;53.14
63019;BME280;49105;46.046;10.760;2023-04-08T05:01:22;95591.81;;;4.60;52.90
63019;BME280;49105;46.046;10.760;2023-04-08T05:03:56;95589.91;;;4.56;53.06
63019;BME280;49105;46.046;10.760;2023-04-08T05:06:22;95596.66;;;4.52;53.53
63019;BME280;49105;46.046;10.760;2023-04-08T05:08:48;95587.69;;;4.64;53.30
63019;BME280;49105;46.046;10.760;2023-04-08T05:11:21;95590.34;;;4.81;52.75
63019;BME280;49105;46.046;10.760;2023-04-08T05:13:53;95590.13;;;4.83;53.11
63019;BME280;49105;46.046;10.760;2023-04-08T05:16:18;95598.88;;;4.60;53.34
63019;BME280;49105;46.046;10.760;2023-04-08T05:18:52;95606.03;;;4.36;53.97
63019;BME280;49105;46.046;10.760;2023-04-08T05:21:27;95606.56;;;4.21;54.65
63019;BME280;49105;46.046;10.760;2023-04-08T05:23:58;95613.47;;;4.27;54.40
63019;BME280;49105;46.046;10.760;2023-04-08T05:26:30;95618.13;;;4.37;54.17
63019;BME280;49105;46.046;10.760;2023-04-08T05:28:58;95617.78;;;4.45;54.18
63019;BME280;49105;46.046;10.760;2023-04-08T05:31:33;95623.19;;;4.55;53.92
63019;BME280;49105;46.046;10.760;2023-04-08T05:34:04;95615.50;;;4.65;53.87
63019;BME280;49105;46.046;10.760;2023-04-08T05:36:39;95612.25;;;4.75;53.61
63019;BME280;49105;46.046;10.760;2023-04-08T05:39:18;95618.25;;;4.87;53.64
63019;BME280;49105;46.046;10.760;2023-04-08T05:41:49;95617.84;;;4.79;53.84
63019;BME280;49105;46.046;10.760;2023-04-08T05:44:15;95625.84;;;4.72;53.82
63019;BME280;49105;46.046;10.760;2023-04-08T05:46:49;95619.81;;;4.71;53.70
63019;BME280;49105;46.046;10.760;2023-04-08T05:49:15;95619.09;;;4.76;53.64
63019;BME280;49105;46.046;10.760;2023-04-08T05:51:47;95632.41;;;4.86;53.47
63019;BME280;49105;46.046;10.760;2023-04-08T05:54:13;95620.22;;;4.97;53.25
63019;BME280;49105;46.046;10.760;2023-04-08T05:56:38;95623.44;;;4.99;53.01
63019;BME280;49105;46.046;10.760;2023-04-08T05:59:04;95624.47;;;4.98;52.97
63019;BME280;49105;46.046;10.760;2023-04-08T06:01:32;95629.94;;;4.96;53.08
63019;BME280;49105;46.046;10.760;2023-04-08T06:03:58;95630.97;;;4.95;52.99
63019;BME280;49105;46.046;10.760;2023-04-08T06:06:32;95640.34;;;4.91;53.13
63019;BME280;49105;46.046;10.760;2023-04-08T06:09:03;95639.69;;;4.84;53.49
63019;BME280;49105;46.046;10.760;2023-04-08T06:11:32;95644.84;;;4.79;53.60
63019;BME280;49105;46.046;10.760;2023-04-08T06:13:58;95646.03;;;4.71;53.82
63019;BME280;49105;46.046;10.760;2023-04-08T06:16:35;95637.78;;;4.80;53.62
63019;BME280;49105;46.046;10.760;2023-04-08T06:19:10;95631.59;;;4.86;53.89
63019;BME280;49105;46.046;10.760;2023-04-08T06:21:48;95635.91;;;5.09;53.43
63019;BME280;49105;46.046;10.760;2023-04-08T06:24:21;95635.69;;;5.27;53.33
63019;BME280;49105;46.046;10.760;2023-04-08T06:26:47;95639.91;;;5.28;53.37
63019;BME280;49105;46.046;10.760;2023-04-08T06:29:20;95640.53;;;5.18;53.46
63019;BME280;49105;46.046;10.760;2023-04-08T06:31:52;95650.13;;;5.13;53.55
63019;BME280;49105;46.046;10.760;2023-04-08T06:34:17;95646.25;;;5.15;53.45
63019;BME280;49105;46.046;10.760;2023-04-08T06:36:46;95636.09;;;5.19;53.35
63019;BME280;49105;46.046;10.760;2023-04-08T06:39:12;95635.13;;;5.25;53.15
63019;BME280;49105;46.046;10.760;2023-04-08T06:41:45;95637.19;;;5.40;53.61
63019;BME280;49105;46.046;10.760;2023-04-08T06:44:10;95630.16;;;5.62;52.86
63019;BME280;49105;46.046;10.760;2023-04-08T06:46:39;95633.16;;;5.71;52.94
63019;BME280;49105;46.046;10.760;2023-04-08T06:49:04;95634.75;;;5.89;53.14
63019;BME280;49105;46.046;10.760;2023-04-08T06:51:31;95631.47;;;5.99;52.97
63019;BME280;49105;46.046;10.760;2023-04-08T06:53:57;95627.81;;;6.00;53.13
63019;BME280;49105;46.046;10.760;2023-04-08T06:56:23;95631.31;;;5.88;52.90
63019;BME280;49105;46.046;10.760;2023-04-08T06:58:51;95623.41;;;5.88;52.94
63019;BME280;49105;46.046;10.760;2023-04-08T07:01:25;95624.88;;;5.96;53.01
63019;BME280;49105;46.046;10.760;2023-04-08T07:04:00;95618.53;;;6.14;52.93
63019;BME280;49105;46.046;10.760;2023-04-08T07:06:32;95609.53;;;6.32;52.29
63019;BME280;49105;46.046;10.760;2023-04-08T07:09:04;95613.09;;;6.42;52.53
63019;BME280;49105;46.046;10.760;2023-04-08T07:11:29;95609.22;;;6.50;52.23
63019;BME280;49105;46.046;10.760;2023-04-08T07:14:04;95610.06;;;6.56;52.62
63019;BME280;49105;46.046;10.760;2023-04-08T07:16:29;95607.78;;;6.64;52.43
63019;BME280;49105;46.046;10.760;2023-04-08T07:18:55;95602.06;;;6.72;52.49
63019;BME280;49105;46.046;10.760;2023-04-08T07:21:27;95599.03;;;6.86;52.04
63019;BME280;49105;46.046;10.760;2023-04-08T07:23:52;95594.97;;;7.00;52.20
63019;BME280;49105;46.046;10.760;2023-04-08T07:26:21;95589.03;;;7.15;51.73
63019;BME280;49105;46.046;10.760;2023-04-08T07:31:52;95592.66;;;7.41;51.40
63019;BME280;49105;46.046;10.760;2023-04-08T07:34:18;95591.13;;;7.50;51.22
63019;BME280;49105;46.046;10.760;2023-04-08T07:36:53;95589.81;;;7.53;51.29
63019;BME280;49105;46.046;10.760;2023-04-08T07:39:19;95582.75;;;7.58;51.18
63019;BME280;49105;46.046;10.760;2023-04-08T07:41:54;95568.03;;;7.62;51.10
63019;BME280;49105;46.046;10.760;2023-04-08T07:44:26;95576.16;;;7.61;51.22
63019;BME280;49105;46.046;10.760;2023-04-08T07:47:02;95575.69;;;7.69;50.93
63019;BME280;49105;46.046;10.760;2023-04-08T07:49:33;95576.25;;;7.76;50.74
63019;BME280;49105;46.046;10.760;2023-04-08T07:52:05;95572.88;;;7.86;50.68
63019;BME280;49105;46.046;10.760;2023-04-08T07:54:40;95565.53;;;7.98;49.97
63019;BME280;49105;46.046;10.760;2023-04-08T07:57:06;95572.97;;;8.06;50.32
63019;BME280;49105;46.046;10.760;2023-04-08T07:59:31;95571.72;;;8.19;49.95
63019;BME280;49105;46.046;10.760;2023-04-08T08:01:57;95568.59;;;8.32;49.90
63019;BME280;49105;46.046;10.760;2023-04-08T08:04:22;95556.78;;;8.45;49.24
63019;BME280;49105;46.046;10.760;2023-04-08T08:06:50;95561.81;;;8.57;48.90
63019;BME280;49105;46.046;10.760;2023-04-08T08:09:24;95555.47;;;8.63;49.07
63019;BME280;49105;46.046;10.760;2023-04-08T08:11:50;95554.97;;;8.76;48.59
63019;BME280;49105;46.046;10.760;2023-04-08T08:14:24;95546.00;;;8.87;48.34
63019;BME280;49105;46.046;10.760;2023-04-08T08:16:56;95552.88;;;8.99;48.37
63019;BME280;49105;46.046;10.760;2023-04-08T08:19:25;95547.59;;;9.09;47.82
63019;BME280;49105;46.046;10.760;2023-04-08T08:21:59;95547.59;;;9.19;47.81
63019;BME280;49105;46.046;10.760;2023-04-08T08:24:34;95542.31;;;9.24;47.32
63019;BME280;49105;46.046;10.760;2023-04-08T08:27:12;95534.38;;;9.34;47.12
63019;BME280;49105;46.046;10.760;2023-04-08T08:29:40;95532.78;;;9.43;46.86
63019;BME280;49105;46.046;10.760;2023-04-08T08:32:06;95531.16;;;9.53;46.95
63019;BME280;49105;46.046;10.760;2023-04-08T08:34:40;95531.16;;;9.63;46.77
63019;BME280;49105;46.046;10.760;2023-04-08T08:37:15;95525.56;;;9.75;46.48
63019;BME280;49105;46.046;10.760;2023-04-08T08:39:40;95529.00;;;9.80;46.54
63019;BME280;49105;46.046;10.760;2023-04-08T08:42:06;95523.41;;;9.92;46.81
63019;BME280;49105;46.046;10.760;2023-04-08T08:44:32;95529.69;;;10.01;46.58
63019;BME280;49105;46.046;10.760;2023-04-08T08:47:07;95522.50;;;10.12;45.72
63019;BME280;49105;46.046;10.760;2023-04-08T08:49:33;95516.41;;;10.16;46.02
63019;BME280;49105;46.046;10.760;2023-04-08T08:52:15;95518.72;;;10.33;46.16
63019;BME280;49105;46.046;10.760;2023-04-08T08:54:47;95511.72;;;10.53;45.42
63019;BME280;49105;46.046;10.760;2023-04-08T08:57:24;95507.91;;;10.69;45.93
63019;BME280;49105;46.046;10.760;2023-04-08T08:59:50;95506.78;;;10.80;45.48
63019;BME280;49105;46.046;10.760;2023-04-08T09:02:23;95511.41;;;10.93;45.09
63019;BME280;49105;46.046;10.760;2023-04-08T09:08:32;95505.09;;;11.24;44.26
63019;BME280;49105;46.046;10.760;2023-04-08T09:11:24;95493.53;;;11.38;43.63
63019;BME280;49105;46.046;10.760;2023-04-08T09:13:50;95495.09;;;11.45;41.85
63019;BME280;49105;46.046;10.760;2023-04-08T09:16:17;95492.03;;;11.56;42.33
63019;BME280;49105;46.046;10.760;2023-04-08T09:18:45;95490.13;;;11.62;41.62
63019;BME280;49105;46.046;10.760;2023-04-08T09:21:12;95489.38;;;11.80;41.65
63019;BME280;49105;46.046;10.760;2023-04-08T09:23:48;95480.25;;;11.91;39.33
63019;BME280;49105;46.046;10.760;2023-04-08T09:26:20;95485.38;;;12.07;40.30
63019;BME280;49105;46.046;10.760;2023-04-08T09:29:08;95480.44;;;12.19;40.09
63019;BME280;49105;46.046;10.760;2023-04-08T09:31:39;95481.03;;;12.35;38.91
63019;BME280;49105;46.046;10.760;2023-04-08T09:34:15;95484.22;;;12.51;39.39
63019;BME280;49105;46.046;10.760;2023-04-08T09:36:45;95477.69;;;12.62;39.00
63019;BME280;49105;46.046;10.760;2023-04-08T09:39:10;95478.22;;;12.64;39.12
63019;BME280;49105;46.046;10.760;2023-04-08T09:41:43;95478.13;;;12.69;38.49
63019;BME280;49105;46.046;10.760;2023-04-08T09:44:15;95473.16;;;12.81;38.07
63019;BME280;49105;46.046;10.760;2023-04-08T09:52:14;95466.94;;;13.19;36.79
63019;BME280;49105;46.046;10.760;2023-04-08T09:55:00;95459.69;;;13.24;37.17
63019;BME280;49105;46.046;10.760;2023-04-08T10:00:23;95464.00;;;13.20;35.62
63019;BME280;49105;46.046;10.760;2023-04-08T10:05:37;95457.16;;;13.33;36.19
63019;BME280;49105;46.046;10.760;2023-04-08T10:08:14;95461.69;;;13.32;35.71
63019;BME280;49105;46.046;10.760;2023-04-08T10:10:40;95457.84;;;13.38;36.15
63019;BME280;49105;46.046;10.760;2023-04-08T10:13:06;95457.75;;;13.44;36.21
63019;BME280;49105;46.046;10.760;2023-04-08T10:15:33;95457.19;;;13.47;35.47
63019;BME280;49105;46.046;10.760;2023-04-08T10:23:17;95454.31;;;13.71;35.22
63019;BME280;49105;46.046;10.760;2023-04-08T10:25:47;95453.25;;;13.72;34.57
63019;BME280;49105;46.046;10.760;2023-04-08T10:30:54;95454.72;;;13.64;34.32
63019;BME280;49105;46.046;10.760;2023-04-08T10:38:43;95449.28;;;13.69;34.21
63019;BME280;49105;46.046;10.760;2023-04-08T10:41:23;95445.38;;;13.67;33.86
63019;BME280;49105;46.046;10.760;2023-04-08T10:43:56;95445.72;;;13.74;34.33
63019;BME280;49105;46.046;10.760;2023-04-08T10:46:21;95439.03;;;13.76;34.01
63019;BME280;49105;46.046;10.760;2023-04-08T10:48:59;95445.66;;;13.79;33.73
63019;BME280;49105;46.046;10.760;2023-04-08T10:51:31;95433.50;;;13.86;33.96
63019;BME280;49105;46.046;10.760;2023-04-08T10:54:08;95429.56;;;13.98;34.19
63019;BME280;49105;46.046;10.760;2023-04-08T10:56:35;95426.97;;;14.06;33.90
63019;BME280;49105;46.046;10.760;2023-04-08T10:59:07;95433.06;;;14.21;34.35
63019;BME280;49105;46.046;10.760;2023-04-08T11:01:45;95427.81;;;14.29;33.13
63019;BME280;49105;46.046;10.760;2023-04-08T11:04:20;95431.56;;;14.28;32.37
63019;BME280;49105;46.046;10.760;2023-04-08T11:06:50;95420.00;;;14.33;32.88
63019;BME280;49105;46.046;10.760;2023-04-08T11:09:25;95427.28;;;14.41;32.69
63019;BME280;49105;46.046;10.760;2023-04-08T11:11:51;95414.84;;;14.50;32.77
63019;BME280;49105;46.046;10.760;2023-04-08T11:14:24;95418.78;;;14.53;32.54
63019;BME280;49105;46.046;10.760;2023-04-08T11:16:53;95408.13;;;14.53;32.43
63019;BME280;49105;46.046;10.760;2023-04-08T11:19:25;95409.56;;;14.59;31.98
63019;BME280;49105;46.046;10.760;2023-04-08T11:21:56;95408.97;;;14.62;32.44
63019;BME280;49105;46.046;10.760;2023-04-08T11:24:32;95404.75;;;14.61;31.95
63019;BME280;49105;46.046;10.760;2023-04-08T11:27:04;95404.84;;;14.56;32.53
63019;BME280;49105;46.046;10.760;2023-04-08T11:29:41;95398.31;;;14.62;32.61
63019;BME280;49105;46.046;10.760;2023-04-08T11:32:16;95388.53;;;14.80;32.54
63019;BME280;49105;46.046;10.760;2023-04-08T11:34:53;95390.84;;;14.95;32.58
63019;BME280;49105;46.046;10.760;2023-04-08T11:37:19;95374.06;;;14.95;30.71
63019;BME280;49105;46.046;10.760;2023-04-08T11:39:54;95383.34;;;15.06;31.00
63019;BME280;49105;46.046;10.760;2023-04-08T11:42:39;95382.66;;;15.23;31.05
63019;BME280;49105;46.046;10.760;2023-04-08T11:45:13;95378.59;;;15.34;31.11
63019;BME280;49105;46.046;10.760;2023-04-08T11:47:45;95371.25;;;15.31;30.13
63019;BME280;49105;46.046;10.760;2023-04-08T11:50:25;95375.66;;;15.35;30.42
63019;BME280;49105;46.046;10.760;2023-04-08T11:52:51;95369.34;;;15.31;30.72
63019;BME280;49105;46.046;10.760;2023-04-08T11:55:27;95376.88;;;15.29;30.99
63019;BME280;49105;46.046;10.760;2023-04-08T11:58:04;95372.94;;;15.27;31.04
63019;BME280;49105;46.046;10.760;2023-04-08T12:00:41;95370.91;;;15.24;31.82
63019;BME280;49105;46.046;10.760;2023-04-08T12:03:18;95363.19;;;15.22;31.82
63019;BME280;49105;46.046;10.760;2023-04-08T12:05:44;95366.34;;;15.24;32.05
63019;BME280;49105;46.046;10.760;2023-04-08T12:08:10;95369.47;;;15.26;32.15
63019;BME280;49105;46.046;10.760;2023-04-08T12:10:36;95355.53;;;15.29;32.18
63019;BME280;49105;46.046;10.760;2023-04-08T12:13:01;95366.19;;;15.29;32.03
63019;BME280;49105;46.046;10.760;2023-04-08T12:15:27;95379.69;;;15.24;31.67
63019;BME280;49105;46.046;10.760;2023-04-08T12:17:55;95366.91;;;15.12;31.73
63019;BME280;49105;46.046;10.760;2023-04-08T12:23:42;95366.53;;;14.97;31.34
63019;BME280;49105;46.046;10.760;2023-04-08T12:26:14;95364.22;;;15.04;31.70
63019;BME280;49105;46.046;10.760;2023-04-08T12:28:39;95362.50;;;15.08;31.90
63019;BME280;49105;46.046;10.760;2023-04-08T12:31:09;95372.06;;;15.09;32.24
63019;BME280;49105;46.046;10.760;2023-04-08T12:33:37;95363.91;;;15.05;32.15
63019;BME280;49105;46.046;10.760;2023-04-08T12:36:14;95366.72;;;15.00;32.47
63019;BME280;49105;46.046;10.760;2023-04-08T12:38:50;95368.59;;;15.00;32.63
63019;BME280;49105;46.046;10.760;2023-04-08T12:41:25;95368.72;;;14.95;32.17
63019;BME280;49105;46.046;10.760;2023-04-08T12:43:51;95362.31;;;14.96;32.58
63019;BME280;49105;46.046;10.760;2023-04-08T12:46:25;95361.88;;;15.02;32.54
63019;BME280;49105;46.046;10.760;2023-04-08T12:48:51;95373.78;;;15.05;32.19
63019;BME280;49105;46.046;10.760;2023-04-08T12:51:16;95359.84;;;15.08;32.53
63019;BME280;49105;46.046;10.760;2023-04-08T12:53:48;95370.38;;;15.13;32.74
63019;BME280;49105;46.046;10.760;2023-04-08T12:56:13;95374.34;;;15.24;32.88
63019;BME280;49105;46.046;10.760;2023-04-08T12:58:48;95375.44;;;15.23;32.51
63019;BME280;49105;46.046;10.760;2023-04-08T13:01:19;95373.56;;;15.24;32.68
63019;BME280;49105;46.046;10.760;2023-04-08T13:03:45;95374.66;;;15.23;33.16
63019;BME280;49105;46.046;10.760;2023-04-08T13:06:17;95374.00;;;15.17;33.18
63019;BME280;49105;46.046;10.760;2023-04-08T13:08:43;95375.22;;;15.11;33.34
63019;BME280;49105;46.046;10.760;2023-04-08T13:11:17;95370.78;;;14.98;33.04
63019;BME280;49105;46.046;10.760;2023-04-08T13:13:45;95394.06;;;14.83;33.30
63019;BME280;49105;46.046;10.760;2023-04-08T13:16:20;95381.78;;;14.74;33.44
63019;BME280;49105;46.046;10.760;2023-04-08T13:18:52;95380.63;;;14.66;33.41
63019;BME280;49105;46.046;10.760;2023-04-08T13:21:17;95389.50;;;14.53;34.25
63019;BME280;49105;46.046;10.760;2023-04-08T13:23:46;95397.03;;;14.37;33.99
63019;BME280;49105;46.046;10.760;2023-04-08T13:26:12;95399.63;;;14.28;34.29
63019;BME280;49105;46.046;10.760;2023-04-08T13:28:37;95409.50;;;14.14;34.61
63019;BME280;49105;46.046;10.760;2023-04-08T13:31:08;95406.47;;;14.07;34.41
63019;BME280;49105;46.046;10.760;2023-04-08T13:33:40;95415.97;;;13.99;34.54
63019;BME280;49105;46.046;10.760;2023-04-08T13:36:06;95417.25;;;13.88;34.07
63019;BME280;49105;46.046;10.760;2023-04-08T13:38:41;95425.75;;;13.76;34.92
63019;BME280;49105;46.046;10.760;2023-04-08T13:41:15;95430.19;;;13.67;35.34
63019;BME280;49105;46.046;10.760;2023-04-08T13:43:50;95443.59;;;13.62;35.21
63019;BME280;49105;46.046;10.760;2023-04-08T13:46:22;95451.16;;;13.55;35.85
63019;BME280;49105;46.046;10.760;2023-04-08T13:48:53;95453.94;;;13.50;35.76
63019;BME280;49105;46.046;10.760;2023-04-08T13:51:31;95467.41;;;13.39;36.03
63019;BME280;49105;46.046;10.760;2023-04-08T13:54:02;95472.81;;;13.34;36.28
63019;BME280;49105;46.046;10.760;2023-04-08T13:59:50;95526.00;;;12.64;43.74
63019;BME280;49105;46.046;10.760;2023-04-08T14:02:18;95528.19;;;12.19;47.32
63019;BME280;49105;46.046;10.760;2023-04-08T14:04:53;95536.03;;;11.81;47.96